createdAt,value
2018-03-04T00:00:22.299Z,45.60
2018-03-04T00:02:49.894Z,36.87
2018-03-04T00:05:17.594Z,60.70
2018-03-04T00:07:45.163Z,41.60
2018-03-04T00:10:12.913Z,46.80
2018-03-04T00:12:40.554Z,47.60
2018-03-04T00:15:08.263Z,46.27
2018-03-04T00:17:36.129Z,47.90
2018-03-04T00:20:03.778Z,49.00
2018-03-04T00:22:41.493Z,48.00
2018-03-04T00:25:09.243Z,43.38
2018-03-04T00:27:37.083Z,45.73
2018-03-04T00:30:04.619Z,42.30
2018-03-04T00:32:32.158Z,41.53
2018-03-04T00:34:59.801Z,33.83
2018-03-04T00:37:27.343Z,45.87
2018-03-04T00:39:54.954Z,45.40
2018-03-04T00:42:22.584Z,47.67
2018-03-04T00:44:50.139Z,87.13
2018-03-04T00:47:18.042Z,57.03
2018-03-04T00:49:45.863Z,61.23
2018-03-04T00:52:13.549Z,38.47
2018-03-04T00:54:41.280Z,38.93
2018-03-04T00:57:08.972Z,35.33
2018-03-04T00:59:36.549Z,47.27
2018-03-04T01:02:04.295Z,105.57
2018-03-04T01:04:31.981Z,66.73
2018-03-04T01:07:00.030Z,46.03
2018-03-04T01:09:27.600Z,45.23
2018-03-04T01:11:55.162Z,42.30
2018-03-04T01:14:22.754Z,44.07
2018-03-04T01:16:50.288Z,42.20
2018-03-04T01:19:17.836Z,40.85
2018-03-04T01:21:45.397Z,39.73
2018-03-04T01:24:13.009Z,46.73
2018-03-04T01:26:40.705Z,34.67
2018-03-04T01:29:08.639Z,46.45
2018-03-04T01:31:36.318Z,43.20
2018-03-04T01:34:04.004Z,69.23
2018-03-04T01:36:31.544Z,55.10
2018-03-04T01:38:59.139Z,41.57
2018-03-04T01:41:27.060Z,39.95
2018-03-04T01:43:54.700Z,40.70
2018-03-04T01:46:22.344Z,39.37
2018-03-04T01:48:50.018Z,43.60
2018-03-04T01:51:17.864Z,46.77
2018-03-04T01:53:45.585Z,41.57
2018-03-04T01:56:13.205Z,37.33
2018-03-04T01:58:40.834Z,46.50
2018-03-04T02:01:08.419Z,42.23
2018-03-04T02:03:35.991Z,34.65
2018-03-04T02:06:03.698Z,39.70
2018-03-04T02:08:31.449Z,42.15
2018-03-04T02:10:59.224Z,43.67
2018-03-04T02:13:26.955Z,37.53
2018-03-04T02:15:54.887Z,44.50
2018-03-04T02:18:22.655Z,38.17
2018-03-04T02:20:50.174Z,32.97
2018-03-04T02:23:18.325Z,35.63
2018-03-04T02:25:46.574Z,54.17
2018-03-04T02:28:14.130Z,42.57
2018-03-04T02:30:42.009Z,45.57
2018-03-04T02:33:09.685Z,51.75
2018-03-04T02:35:37.529Z,48.27
2018-03-04T02:38:05.071Z,46.50
2018-03-04T02:40:32.628Z,51.83
2018-03-04T02:43:00.260Z,56.03
2018-03-04T02:45:27.820Z,47.90
2018-03-04T02:47:55.353Z,42.53
2018-03-04T02:50:22.898Z,48.33
2018-03-04T02:52:50.483Z,52.47
2018-03-04T02:55:18.176Z,56.97
2018-03-04T02:57:45.848Z,47.47
2018-03-04T03:00:13.410Z,43.30
2018-03-04T03:02:41.000Z,45.43
2018-03-04T03:05:08.639Z,43.30
2018-03-04T03:07:36.410Z,39.40
2018-03-04T03:10:04.088Z,36.77
2018-03-04T03:12:31.772Z,36.80
2018-03-04T03:14:59.304Z,40.80
2018-03-04T03:17:27.400Z,38.30
2018-03-04T03:19:55.155Z,45.37
2018-03-04T03:22:22.689Z,44.67
2018-03-04T03:24:50.304Z,49.72
2018-03-04T03:27:18.853Z,42.40
2018-03-04T03:29:46.520Z,41.27
2018-03-04T03:32:14.423Z,43.90
2018-03-04T03:34:41.938Z,38.63
2018-03-04T03:37:09.583Z,47.83
2018-03-04T03:39:37.230Z,35.73
2018-03-04T03:42:05.583Z,45.57
2018-03-04T03:44:33.269Z,38.40
2018-03-04T03:47:00.939Z,35.10
2018-03-04T03:49:28.553Z,34.67
2018-03-04T03:51:56.145Z,33.03
2018-03-04T03:54:23.764Z,39.80
2018-03-04T03:56:51.578Z,40.28
2018-03-04T03:59:19.213Z,40.60
2018-03-04T04:01:47.153Z,31.62
2018-03-04T04:04:15.430Z,32.37
2018-03-04T04:06:43.517Z,35.53
2018-03-04T04:09:11.043Z,37.47
2018-03-04T04:11:38.608Z,41.20
2018-03-04T04:14:06.320Z,35.07
2018-03-04T04:16:33.873Z,35.40
2018-03-04T04:19:01.708Z,32.70
2018-03-04T04:21:29.245Z,35.60
2018-03-04T04:23:57.738Z,39.80
2018-03-04T04:26:25.324Z,39.60
2018-03-04T04:28:52.981Z,37.87
2018-03-04T04:31:20.833Z,37.42
2018-03-04T04:33:48.553Z,43.73
2018-03-04T04:36:16.177Z,40.05
2018-03-04T04:38:43.812Z,51.25
2018-03-04T04:41:12.607Z,44.53
2018-03-04T04:43:40.479Z,35.10
2018-03-04T04:46:08.290Z,37.13
2018-03-04T04:48:35.829Z,37.17
2018-03-04T04:51:03.464Z,32.10
2018-03-04T04:53:31.159Z,37.57
2018-03-04T04:55:58.798Z,34.53
2018-03-04T04:58:26.470Z,29.17
2018-03-04T05:00:54.063Z,31.40
2018-03-04T05:03:21.605Z,26.33
2018-03-04T05:05:49.234Z,33.70
2018-03-04T05:08:17.069Z,29.83
2018-03-04T05:10:44.647Z,29.53
2018-03-04T05:13:12.293Z,32.50
2018-03-04T05:15:39.928Z,28.20
2018-03-04T05:18:08.418Z,35.00
2018-03-04T05:20:36.228Z,48.63
2018-03-04T05:23:03.942Z,38.67
2018-03-04T05:25:31.474Z,53.10
2018-03-04T05:27:59.054Z,48.33
2018-03-04T05:30:26.621Z,37.47
2018-03-04T05:32:54.330Z,36.20
2018-03-04T05:35:21.968Z,31.57
2018-03-04T05:37:50.623Z,42.33
2018-03-04T05:40:18.232Z,62.70
2018-03-04T05:42:45.809Z,32.93
2018-03-04T05:45:13.740Z,37.07
2018-03-04T05:47:41.540Z,35.13
2018-03-04T05:50:09.243Z,29.40
2018-03-04T05:52:36.784Z,45.53
2018-03-04T05:55:04.443Z,28.70
2018-03-04T05:57:32.074Z,28.60
2018-03-04T06:00:00.548Z,34.37
2018-03-04T06:02:28.285Z,43.80
2018-03-04T06:04:55.822Z,45.75
2018-03-04T06:07:23.619Z,34.63
2018-03-04T06:09:51.303Z,39.37
2018-03-04T06:12:19.056Z,40.80
2018-03-04T06:14:46.689Z,46.70
2018-03-04T06:17:14.213Z,45.90
2018-03-04T06:19:41.749Z,63.93
2018-03-04T06:22:09.769Z,53.80
2018-03-04T06:24:37.530Z,60.03
2018-03-04T06:27:05.149Z,72.00
2018-03-04T06:29:33.000Z,67.77
2018-03-04T06:32:00.638Z,79.50
2018-03-04T06:34:28.180Z,77.07
2018-03-04T06:36:55.925Z,73.10
2018-03-04T06:39:23.457Z,65.25
2018-03-04T06:41:51.329Z,184.50
2018-03-04T06:44:18.991Z,141.62
2018-03-04T06:46:46.693Z,121.53
2018-03-04T06:49:14.730Z,127.97
2018-03-04T06:51:42.443Z,75.50
2018-03-04T06:54:10.003Z,70.27
2018-03-04T06:56:37.844Z,89.00
2018-03-04T06:59:05.388Z,70.10
2018-03-04T07:01:32.940Z,101.53
2018-03-04T07:04:00.584Z,98.77
2018-03-04T07:06:28.144Z,130.47
2018-03-04T07:08:55.708Z,84.23
2018-03-04T07:11:23.249Z,101.93
2018-03-04T07:13:50.798Z,147.83
2018-03-04T07:16:18.368Z,94.73
2018-03-04T07:18:46.608Z,110.88
2018-03-04T07:21:14.220Z,79.73
2018-03-04T07:23:41.904Z,278.63
2018-03-04T07:26:09.638Z,85.25
2018-03-04T07:28:37.292Z,45.03
2018-03-04T07:31:05.054Z,80.07
2018-03-04T07:33:32.708Z,42.87
2018-03-04T07:36:00.293Z,39.00
2018-03-04T07:38:27.855Z,23.40
2018-03-04T07:40:55.638Z,25.50
2018-03-04T07:43:23.179Z,27.13
2018-03-04T07:45:50.912Z,23.50
2018-03-04T07:48:18.744Z,27.27
2018-03-04T07:50:46.278Z,26.30
2018-03-04T07:53:14.884Z,24.70
2018-03-04T07:55:42.423Z,50.43
2018-03-04T07:58:10.090Z,27.40
2018-03-04T08:00:38.630Z,19.23
2018-03-04T08:03:07.173Z,16.83
2018-03-04T08:05:34.900Z,17.07
2018-03-04T08:08:02.565Z,18.67
2018-03-04T08:10:30.389Z,15.47
2018-03-04T08:12:58.127Z,16.70
2018-03-04T08:15:25.758Z,16.20
2018-03-04T08:17:53.414Z,15.07
2018-03-04T08:20:21.165Z,14.70
2018-03-04T08:22:48.734Z,14.67
2018-03-04T08:25:28.258Z,15.00
2018-03-04T08:28:07.924Z,18.63
2018-03-04T08:30:35.612Z,21.25
2018-03-04T08:33:03.192Z,15.50
2018-03-04T08:35:31.102Z,14.38
2018-03-04T08:37:58.649Z,13.47
2018-03-04T08:40:26.404Z,13.37
2018-03-04T08:42:54.029Z,16.30
2018-03-04T08:45:21.799Z,13.80
2018-03-04T08:47:49.359Z,13.20
2018-03-04T08:50:17.219Z,12.40
2018-03-04T08:52:44.869Z,12.80
2018-03-04T08:55:12.589Z,14.95
2018-03-04T08:57:40.275Z,14.53
2018-03-04T09:00:08.805Z,16.07
2018-03-04T09:02:36.558Z,12.60
2018-03-04T09:05:04.114Z,14.40
2018-03-04T09:07:31.907Z,16.50
2018-03-04T09:09:59.462Z,13.93
2018-03-04T09:12:27.200Z,14.67
2018-03-04T09:14:54.754Z,12.47
2018-03-04T09:17:22.554Z,12.20
2018-03-04T09:19:50.234Z,12.33
2018-03-04T09:22:17.875Z,12.53
2018-03-04T09:24:45.490Z,9.70
2018-03-04T09:27:13.504Z,11.17
2018-03-04T09:29:41.069Z,8.10
2018-03-04T09:32:08.731Z,8.70
2018-03-04T09:34:36.245Z,6.80
2018-03-04T09:37:03.879Z,8.50
2018-03-04T09:39:31.546Z,9.50
2018-03-04T09:41:59.134Z,8.40
2018-03-04T09:44:26.824Z,9.67
2018-03-04T09:46:55.388Z,10.77
2018-03-04T09:49:23.015Z,11.20
2018-03-04T09:51:50.870Z,8.07
2018-03-04T09:54:18.609Z,10.10
2018-03-04T09:56:46.392Z,24.70
2018-03-04T09:59:14.054Z,9.20
2018-03-04T10:01:41.810Z,11.33
2018-03-04T10:04:09.376Z,9.60
2018-03-04T10:06:37.193Z,10.70
2018-03-04T10:09:04.813Z,10.27
2018-03-04T10:11:32.759Z,9.00
2018-03-04T10:14:00.309Z,11.03
2018-03-04T10:16:27.928Z,8.63
2018-03-04T10:18:55.948Z,8.30
2018-03-04T10:21:23.722Z,10.43
2018-03-04T10:23:51.408Z,9.25
2018-03-04T10:26:18.970Z,10.23
2018-03-04T10:28:46.729Z,12.30
2018-03-04T10:31:14.469Z,10.57
2018-03-04T10:33:42.129Z,8.33
2018-03-04T10:36:09.766Z,12.10
2018-03-04T10:38:37.535Z,12.47
2018-03-04T10:41:06.098Z,14.70
2018-03-04T10:43:33.806Z,10.60
2018-03-04T10:46:01.678Z,11.33
2018-03-04T10:48:29.310Z,10.57
2018-03-04T10:50:56.859Z,8.40
2018-03-04T10:53:24.573Z,8.53
2018-03-04T10:55:52.103Z,8.13
2018-03-04T10:58:19.784Z,7.60
2018-03-04T11:00:48.078Z,8.87
2018-03-04T11:03:16.329Z,8.70
2018-03-04T11:05:44.354Z,30.77
2018-03-04T11:08:12.104Z,10.40
2018-03-04T11:10:39.914Z,9.03
2018-03-04T11:13:07.628Z,6.80
2018-03-04T11:15:35.168Z,6.00
2018-03-04T11:18:02.722Z,8.10
2018-03-04T11:20:30.392Z,5.57
2018-03-04T11:22:57.940Z,9.00
2018-03-04T11:25:25.688Z,9.80
2018-03-04T11:27:53.400Z,9.43
2018-03-04T11:30:21.349Z,3.70
2018-03-04T11:32:48.890Z,7.13
2018-03-04T11:35:16.519Z,6.07
2018-03-04T11:37:44.122Z,6.60
2018-03-04T11:40:11.760Z,4.97
2018-03-04T11:42:39.320Z,6.00
2018-03-04T11:45:09.653Z,6.17
2018-03-04T11:47:37.418Z,3.97
2018-03-04T11:50:04.984Z,3.65
2018-03-04T11:52:32.862Z,3.03
2018-03-04T11:55:00.746Z,6.23
2018-03-04T11:57:28.290Z,7.47
2018-03-04T11:59:56.015Z,2.63
2018-03-04T12:02:23.708Z,3.73
2018-03-04T12:04:51.425Z,4.27
2018-03-04T12:07:19.068Z,8.23
2018-03-04T12:09:47.210Z,3.27
2018-03-04T12:12:14.740Z,3.33
2018-03-04T12:14:42.487Z,3.17
2018-03-04T12:17:10.808Z,3.43
2018-03-04T12:19:38.448Z,3.60
2018-03-04T12:22:05.995Z,4.40
2018-03-04T12:24:33.534Z,9.17
2018-03-04T12:27:02.055Z,9.87
2018-03-04T12:29:29.708Z,6.80
2018-03-04T12:31:57.349Z,2.00
2018-03-04T12:34:24.997Z,2.10
2018-03-04T12:36:52.595Z,5.03
2018-03-04T12:39:20.486Z,3.53
2018-03-04T12:41:48.179Z,2.20
2018-03-04T12:44:15.864Z,8.00
2018-03-04T12:46:43.420Z,1.00
2018-03-04T12:49:10.956Z,2.90
2018-03-04T12:51:38.674Z,2.33
2018-03-04T12:54:06.404Z,2.70
2018-03-04T12:56:34.959Z,2.15
2018-03-04T12:59:02.525Z,6.37
2018-03-04T13:01:30.223Z,0.80
2018-03-04T13:03:57.860Z,1.00
2018-03-04T13:06:25.393Z,2.50
2018-03-04T13:08:52.966Z,1.47
2018-03-04T13:11:20.845Z,1.10
2018-03-04T13:13:48.725Z,2.70
2018-03-04T13:16:16.565Z,2.47
2018-03-04T13:18:44.320Z,3.70
2018-03-04T13:21:12.058Z,2.23
2018-03-04T13:23:39.802Z,4.70
2018-03-04T13:26:07.755Z,1.20
2018-03-04T13:28:35.435Z,5.90
2018-03-04T13:31:03.159Z,1.93
2018-03-04T13:33:31.050Z,7.15
2018-03-04T13:35:59.310Z,1.87
2018-03-04T13:38:27.032Z,3.93
2018-03-04T13:40:54.688Z,5.83
2018-03-04T13:43:22.317Z,4.00
2018-03-04T13:45:50.229Z,0.77
2018-03-04T13:48:17.894Z,3.85
2018-03-04T13:50:45.427Z,2.03
2018-03-04T13:53:12.978Z,6.43
2018-03-04T13:55:40.839Z,2.07
2018-03-04T13:58:08.538Z,4.63
2018-03-04T14:00:36.398Z,9.10
2018-03-04T14:03:04.191Z,2.55
2018-03-04T14:05:31.880Z,2.53
2018-03-04T14:07:59.489Z,6.27
2018-03-04T14:10:27.169Z,3.17
2018-03-04T14:12:54.763Z,15.97
2018-03-04T14:15:22.353Z,4.50
2018-03-04T14:17:50.666Z,3.17
2018-03-04T14:20:18.224Z,5.28
2018-03-04T14:22:45.888Z,6.60
2018-03-04T14:25:13.608Z,3.80
2018-03-04T14:27:41.280Z,3.93
2018-03-04T14:30:08.993Z,3.03
2018-03-04T14:32:36.693Z,4.13
2018-03-04T14:35:04.353Z,5.97
2018-03-04T14:37:31.895Z,3.23
2018-03-04T14:39:59.478Z,4.27
2018-03-04T14:42:27.042Z,5.20
2018-03-04T14:44:54.604Z,5.07
2018-03-04T14:47:22.183Z,1.73
2018-03-04T14:49:49.960Z,4.23
2018-03-04T14:52:17.536Z,4.60
2018-03-04T14:54:45.265Z,2.57
2018-03-04T14:57:12.853Z,5.57
2018-03-04T14:59:40.495Z,5.50
2018-03-04T15:02:08.062Z,3.43
2018-03-04T15:04:35.909Z,1.63
2018-03-04T15:07:03.678Z,3.50
2018-03-04T15:09:31.333Z,3.67
2018-03-04T15:11:59.018Z,1.80
2018-03-04T15:14:26.639Z,1.37
2018-03-04T15:16:54.422Z,2.30
2018-03-04T15:19:22.228Z,2.27
2018-03-04T15:21:50.488Z,2.60
2018-03-04T15:24:18.152Z,7.35
2018-03-04T15:26:45.839Z,2.80
2018-03-04T15:29:13.675Z,4.93
2018-03-04T15:31:41.245Z,2.20
2018-03-04T15:34:09.275Z,1.23
2018-03-04T15:36:36.843Z,2.33
2018-03-04T15:39:04.490Z,2.87
2018-03-04T15:41:32.983Z,2.17
2018-03-04T15:44:00.629Z,1.53
2018-03-04T15:46:28.193Z,1.80
2018-03-04T15:48:55.844Z,1.83
2018-03-04T15:51:24.030Z,4.43
2018-03-04T15:53:51.761Z,2.33
2018-03-04T15:56:19.331Z,4.67
2018-03-04T15:58:46.898Z,3.47
2018-03-04T16:01:14.749Z,2.50
2018-03-04T16:03:42.414Z,3.47
2018-03-04T16:06:10.099Z,4.03
2018-03-04T16:08:38.025Z,4.77
2018-03-04T16:11:05.674Z,6.83
2018-03-04T16:13:33.368Z,6.60
2018-03-04T16:16:01.617Z,5.23
2018-03-04T16:18:29.224Z,2.03
2018-03-04T16:20:57.009Z,4.68
2018-03-04T16:23:24.704Z,3.63
2018-03-04T16:25:52.550Z,4.67
2018-03-04T16:28:20.208Z,7.10
2018-03-04T16:30:47.853Z,7.17
2018-03-04T16:33:15.527Z,3.07
2018-03-04T16:35:43.100Z,6.50
2018-03-04T16:38:10.728Z,10.90
2018-03-04T16:40:39.244Z,5.72
2018-03-04T16:43:06.885Z,12.70
2018-03-04T16:45:34.654Z,5.93
2018-03-04T16:48:02.280Z,9.30
2018-03-04T16:50:30.015Z,7.50
2018-03-04T16:52:57.697Z,6.30
2018-03-04T16:55:25.508Z,10.23
2018-03-04T16:57:53.541Z,7.43
2018-03-04T17:00:21.375Z,7.73
2018-03-04T17:02:49.147Z,7.00
2018-03-04T17:05:16.865Z,7.63
2018-03-04T17:07:44.949Z,7.37
2018-03-04T17:10:12.789Z,9.67
2018-03-04T17:12:40.390Z,6.07
2018-03-04T17:15:08.416Z,12.77
2018-03-04T17:17:35.985Z,14.60
2018-03-04T17:20:03.582Z,19.50
2018-03-04T17:22:31.273Z,11.70
2018-03-04T17:25:00.078Z,7.47
2018-03-04T17:27:27.693Z,6.57
2018-03-04T17:29:55.390Z,21.30
2018-03-04T17:32:23.178Z,11.30
2018-03-04T17:34:50.738Z,7.70
2018-03-04T17:37:18.368Z,10.97
2018-03-04T17:39:47.117Z,10.03
2018-03-04T17:42:14.785Z,13.47
2018-03-04T17:44:43.385Z,12.73
2018-03-04T17:47:11.375Z,15.03
2018-03-04T17:49:39.091Z,10.37
2018-03-04T17:52:06.754Z,8.67
2018-03-04T17:54:34.476Z,10.65
2018-03-04T17:57:02.295Z,10.60
2018-03-04T17:59:30.049Z,18.50
2018-03-04T18:01:57.619Z,9.13
2018-03-04T18:04:25.175Z,33.33
2018-03-04T18:06:53.127Z,9.70
2018-03-04T18:09:20.896Z,10.07
2018-03-04T18:11:48.461Z,16.23
2018-03-04T18:14:16.042Z,11.97
2018-03-04T18:16:43.719Z,10.30
2018-03-04T18:19:11.267Z,8.57
2018-03-04T18:21:38.905Z,10.70
2018-03-04T18:24:07.188Z,13.20
2018-03-04T18:26:35.066Z,14.63
2018-03-04T18:29:02.753Z,16.30
2018-03-04T18:31:30.826Z,16.70
2018-03-04T18:33:58.608Z,13.30
2018-03-04T18:36:26.184Z,15.53
2018-03-04T18:38:53.994Z,18.27
2018-03-04T18:41:21.739Z,31.87
2018-03-04T18:43:49.378Z,20.90
2018-03-04T18:46:17.105Z,13.53
2018-03-04T18:48:44.669Z,14.10
2018-03-04T18:51:12.418Z,17.73
2018-03-04T18:53:40.109Z,16.83
2018-03-04T18:56:08.470Z,31.33
2018-03-04T18:58:37.092Z,15.40
2018-03-04T19:01:04.840Z,12.63
2018-03-04T19:03:32.864Z,10.70
2018-03-04T19:06:00.470Z,22.90
2018-03-04T19:08:28.355Z,16.03
2018-03-04T19:10:56.240Z,12.00
2018-03-04T19:13:24.274Z,12.93
2018-03-04T19:15:51.829Z,15.93
2018-03-04T19:18:19.405Z,14.50
2018-03-04T19:20:47.018Z,15.40
2018-03-04T19:23:14.712Z,18.23
2018-03-04T19:25:42.373Z,18.83
2018-03-04T19:28:10.556Z,13.43
2018-03-04T19:30:38.731Z,20.77
2018-03-04T19:33:06.653Z,23.77
2018-03-04T19:35:34.272Z,29.70
2018-03-04T19:38:01.885Z,28.08
2018-03-04T19:40:29.515Z,18.27
2018-03-04T19:42:57.304Z,16.90
2018-03-04T19:45:24.975Z,18.13
2018-03-04T19:47:53.123Z,21.55
2018-03-04T19:50:20.878Z,24.93
2018-03-04T19:52:48.490Z,19.52
2018-03-04T19:55:16.264Z,23.50
2018-03-04T19:57:44.064Z,19.70
2018-03-04T20:00:11.824Z,19.52
2018-03-04T20:02:39.839Z,20.67
2018-03-04T20:05:07.552Z,27.10
2018-03-04T20:07:35.103Z,26.30
2018-03-04T20:10:02.721Z,21.57
2018-03-04T20:12:30.284Z,15.77
2018-03-04T20:14:57.879Z,19.93
2018-03-04T20:17:25.438Z,27.10
2018-03-04T20:19:53.055Z,22.57
2018-03-04T20:22:20.915Z,23.87
2018-03-04T20:24:49.183Z,23.00
2018-03-04T20:27:17.187Z,24.80
2018-03-04T20:29:45.688Z,20.70
2018-03-04T20:32:13.404Z,20.13
2018-03-04T20:34:41.869Z,14.93
2018-03-04T20:37:09.621Z,15.27
2018-03-04T20:39:37.248Z,12.53
2018-03-04T20:42:05.790Z,15.87
2018-03-04T20:44:34.079Z,15.63
2018-03-04T20:47:01.821Z,12.70
2018-03-04T20:49:29.539Z,28.93
2018-03-04T20:51:57.083Z,17.87
2018-03-04T20:54:24.901Z,13.20
2018-03-04T20:56:52.485Z,16.12
2018-03-04T20:59:20.224Z,17.92
2018-03-04T21:01:47.960Z,16.90
2018-03-04T21:04:15.787Z,16.67
2018-03-04T21:06:43.460Z,14.20
2018-03-04T21:09:11.171Z,13.43
2018-03-04T21:11:39.024Z,16.93
2018-03-04T21:14:06.636Z,32.67
2018-03-04T21:16:34.397Z,12.47
2018-03-04T21:19:02.175Z,17.93
2018-03-04T21:21:29.844Z,11.47
2018-03-04T21:23:57.770Z,13.70
2018-03-04T21:26:25.365Z,18.00
2018-03-04T21:28:53.236Z,13.10
2018-03-04T21:31:21.145Z,16.60
2018-03-04T21:33:48.749Z,11.37
2018-03-04T21:36:16.662Z,20.70
2018-03-04T21:38:44.465Z,29.07
2018-03-04T21:41:12.010Z,19.70
2018-03-04T21:43:39.578Z,17.37
2018-03-04T21:46:07.400Z,13.70
2018-03-04T21:48:35.910Z,23.20
2018-03-04T21:51:03.484Z,15.13
2018-03-04T21:53:31.383Z,17.83
2018-03-04T21:55:59.266Z,19.07
2018-03-04T21:58:26.916Z,20.40
2018-03-04T22:00:54.658Z,21.10
2018-03-04T22:03:22.299Z,18.23
2018-03-04T22:05:49.955Z,19.97
2018-03-04T22:08:17.708Z,19.00
2018-03-04T22:10:45.744Z,17.20
2018-03-04T22:13:13.281Z,16.93
2018-03-04T22:15:41.268Z,15.83
2018-03-04T22:18:08.834Z,18.53
2018-03-04T22:20:36.470Z,26.03
2018-03-04T22:23:05.074Z,23.95
2018-03-04T22:25:32.898Z,19.73
2018-03-04T22:28:00.456Z,19.60
2018-03-04T22:30:28.709Z,20.87
2018-03-04T22:32:56.384Z,14.90
2018-03-04T22:35:23.940Z,21.33
2018-03-04T22:37:51.566Z,21.25
2018-03-04T22:40:19.354Z,22.60
2018-03-04T22:42:47.034Z,18.53
2018-03-04T22:45:14.747Z,18.57
2018-03-04T22:47:42.526Z,14.93
2018-03-04T22:50:10.192Z,16.10
2018-03-04T22:52:37.861Z,21.67
2018-03-04T22:55:05.534Z,19.70
2018-03-04T22:57:33.135Z,22.17
2018-03-04T23:00:01.224Z,18.83
2018-03-04T23:02:28.761Z,17.40
2018-03-04T23:04:56.313Z,18.43
2018-03-04T23:07:24.513Z,17.73
2018-03-04T23:09:52.198Z,19.97
2018-03-04T23:12:19.865Z,17.87
2018-03-04T23:14:47.651Z,21.57
2018-03-04T23:17:15.368Z,17.03
2018-03-04T23:19:43.038Z,18.90
2018-03-04T23:22:10.629Z,18.42
2018-03-04T23:24:38.345Z,19.80
2018-03-04T23:27:05.979Z,19.80
2018-03-04T23:29:33.690Z,19.53
2018-03-04T23:32:01.339Z,35.73
2018-03-04T23:34:28.941Z,21.70
2018-03-04T23:36:56.502Z,21.47
2018-03-04T23:39:24.144Z,21.03
2018-03-04T23:41:52.281Z,22.03
2018-03-04T23:44:19.812Z,19.37
2018-03-04T23:46:47.430Z,23.73
2018-03-04T23:49:14.963Z,20.90
2018-03-04T23:51:42.673Z,22.80
2018-03-04T23:54:10.394Z,22.43
2018-03-04T23:56:38.062Z,21.50
2018-03-04T23:59:05.648Z,20.23
